North Waterboro, Maine
Current Conditions -  °F | °C
As of 3:55 AM on Saturday 22 Nov 2014 (Local Time) from KSFM Reporting Station
Clear Clear  
Wind Chill:   Ceiling: Unl
Heat Index: 19°   Visibility: 10mi
Dew Point:   Wind: 8mph
Humidity: 54%   Direction: 220°SW
Pressure: 30.36"   Gusts: NA
Location:  43.62°N, 70.74°W
Report Text: KSFM 220855Z AUTO 22007KT 10SM CLR M07/M15 A3036 RMK AO1 54000
Loading
Personal Weather Stations






























Interactive Weather Map New forecast layout! Learn more

10-Day Weather Forecast

Advertisements
Track Severe Weather on mobile